CheckWX is a tool to help pilots better visualize weather data.  It is not intended as a substitute for an official pre-flight weather briefing.

21:31:43 UTC

CYZF TAF
Yellowknife Airport
Yellowknife, Canada
TAF CYZF 201738Z 2018/2118 36006KT P6SM BKN012 BKN060 TEMPO 2018/2021 SCT012 BKN060 FM202100 35008KT P6SM SCT020 BKN050 TEMPO 2021/2106 BKN020 FM210600 03005KT P6SM SCT008 BKN012 RMK NXT FCST BY 210000Z

Oct-20@
18:00 UTC

Oct-20 @ 18:00 UTC

Oct-20@
21:00 UTC

Oct-20 @ 21:00 UTC

TAF CYZF 201738Z 2018/2118 36006KT P6SM BKN012 BKN060

Expired

Wind
  • 360° at 6 KTS
Cloud Levels
  • Broken at 1,200' AGL
  • Broken at 6,000' AGL

Oct-20@
18:00 UTC

Oct-20 @ 18:00 UTC

Oct-20@
21:00 UTC

Oct-20 @ 21:00 UTC

TEMPO 2018/2021 SCT012 BKN060

Expired

Cloud Levels
  • Scattered at 1,200' AGL
  • Broken at 6,000' AGL

Oct-20@
21:00 UTC

Oct-20 @ 21:00 UTC

Oct-21@
06:00 UTC

Oct-21 @ 06:00 UTC

TEMPO 2021/2106 BKN020

Temporary

Temporary Changes expected for less than half the time period

Cloud Levels
  • Broken at 2,000' AGL

Oct-20@
21:00 UTC

Oct-20 @ 21:00 UTC

Oct-21@
06:00 UTC

Oct-21 @ 06:00 UTC

FM202100 35008KT P6SM SCT020 BKN050

From

From Standard forecast or significant change

Wind
  • 350° at 8 KTS
Cloud Levels
  • Scattered at 2,000' AGL
  • Broken at 5,000' AGL

Oct-21@
06:00 UTC

Oct-21 @ 06:00 UTC

Oct-21@
18:00 UTC

Oct-21 @ 18:00 UTC

FM210600 03005KT P6SM SCT008 BKN012 RMK NXT FCST BY 210000Z

From

From Standard forecast or significant change

Wind
  • 030° at 5 KTS
Cloud Levels
  • Scattered at 800' AGL
  • Broken at 1,200' AGL